createdAt,value
2019-04-28T00:01:54.676Z,87.90
2019-04-28T00:04:25.313Z,88.10
2019-04-28T00:06:56.186Z,88.20
2019-04-28T00:09:28.078Z,88.30
2019-04-28T00:11:58.840Z,88.40
2019-04-28T00:14:29.505Z,88.50
2019-04-28T00:17:01.092Z,88.80
2019-04-28T00:19:32.243Z,88.70
2019-04-28T00:22:18.188Z,88.80
2019-04-28T00:25:07.915Z,89.00
2019-04-28T00:27:38.846Z,89.50
2019-04-28T00:30:11.787Z,89.80
2019-04-28T00:32:42.807Z,90.20
2019-04-28T00:35:13.979Z,90.50
2019-04-28T00:37:44.886Z,90.50
2019-04-28T00:40:16.176Z,90.70
2019-04-28T00:42:47.307Z,90.90
2019-04-28T00:45:18.280Z,91.00
2019-04-28T00:47:51.045Z,91.10
2019-04-28T00:50:22.099Z,90.90
2019-04-28T00:52:53.130Z,90.70
2019-04-28T00:55:23.911Z,90.70
2019-04-28T00:57:54.678Z,90.70
2019-04-28T01:00:27.066Z,90.60
2019-04-28T01:02:57.929Z,90.70
2019-04-28T01:05:28.835Z,90.70
2019-04-28T01:08:01.145Z,90.80
2019-04-28T01:10:32.314Z,90.80
2019-04-28T01:13:03.342Z,90.80
2019-04-28T01:16:02.383Z,90.90
2019-04-28T01:18:41.716Z,90.90
2019-04-28T01:21:12.315Z,90.90
2019-04-28T01:23:43.187Z,90.90
2019-04-28T01:26:14.044Z,91.00
2019-04-28T01:28:44.982Z,91.10
2019-04-28T01:31:39.629Z,91.20
2019-04-28T01:34:20.343Z,91.40
2019-04-28T01:36:51.698Z,91.50
2019-04-28T01:39:23.055Z,91.50
2019-04-28T01:41:54.045Z,91.60
2019-04-28T01:44:24.955Z,91.60
2019-04-28T01:46:56.862Z,91.70
2019-04-28T01:49:29.417Z,91.70
2019-04-28T01:52:01.152Z,91.70
2019-04-28T01:54:32.101Z,91.80
2019-04-28T01:57:02.561Z,91.90
2019-04-28T01:59:33.369Z,92.00
2019-04-28T02:02:04.733Z,92.00
2019-04-28T02:04:35.654Z,92.00
2019-04-28T02:07:06.343Z,91.90
2019-04-28T02:09:37.010Z,91.80
2019-04-28T02:12:07.719Z,91.80
2019-04-28T02:14:40.253Z,91.80
2019-04-28T02:17:10.797Z,91.90
2019-04-28T02:19:41.468Z,91.90
2019-04-28T02:22:21.075Z,91.90
2019-04-28T02:24:52.955Z,91.90
2019-04-28T02:27:23.972Z,91.90
2019-04-28T02:29:54.484Z,91.90
2019-04-28T02:32:25.456Z,91.90
2019-04-28T02:34:56.357Z,91.90
2019-04-28T02:37:27.263Z,91.80
2019-04-28T02:40:02.960Z,91.80
2019-04-28T02:42:31.147Z,91.80
2019-04-28T02:45:03.042Z,91.80
2019-04-28T02:47:34.122Z,91.80
2019-04-28T02:50:21.114Z,92.20
2019-04-28T02:53:22.730Z,91.70
2019-04-28T02:55:53.468Z,91.60
2019-04-28T02:58:24.210Z,91.50
2019-04-28T03:01:09.402Z,91.30
2019-04-28T03:03:30.633Z,91.40
2019-04-28T03:06:01.438Z,91.40
2019-04-28T03:08:32.374Z,91.40
2019-04-28T03:11:04.049Z,91.50
2019-04-28T03:13:34.612Z,91.40
2019-04-28T03:16:05.251Z,91.40
2019-04-28T03:18:36.091Z,91.30
2019-04-28T03:21:06.670Z,91.20
2019-04-28T03:23:37.388Z,91.20
2019-04-28T03:26:31.041Z,91.20
2019-04-28T03:29:20.678Z,91.20
2019-04-28T03:32:31.144Z,91.20
2019-04-28T03:34:47.476Z,91.40
2019-04-28T03:37:18.099Z,91.50
2019-04-28T03:39:50.438Z,91.50
2019-04-28T03:42:21.677Z,91.60
2019-04-28T03:44:53.154Z,91.70
2019-04-28T03:47:23.721Z,91.70
2019-04-28T03:49:54.301Z,91.70
2019-04-28T03:52:24.955Z,91.80
2019-04-28T03:54:55.415Z,91.80
2019-04-28T03:57:26.339Z,91.90
2019-04-28T03:59:56.878Z,91.90
2019-04-28T04:02:30.862Z,91.90
2019-04-28T04:05:03.279Z,91.90
2019-04-28T04:07:32.269Z,91.90
2019-04-28T04:10:11.679Z,91.80
2019-04-28T04:13:16.247Z,91.90
2019-04-28T04:16:04.421Z,91.90
2019-04-28T04:18:40.883Z,92.00
2019-04-28T04:21:12.188Z,92.00
2019-04-28T04:23:42.740Z,92.00
2019-04-28T04:26:13.396Z,92.00
2019-04-28T04:28:43.908Z,92.00
2019-04-28T04:31:14.395Z,91.80
2019-04-28T04:33:45.318Z,91.90
2019-04-28T04:36:16.086Z,91.90
2019-04-28T04:38:47.461Z,91.90
2019-04-28T04:41:20.111Z,91.90
2019-04-28T04:43:51.503Z,91.90
2019-04-28T04:46:24.480Z,91.90
2019-04-28T04:48:55.158Z,91.90
2019-04-28T04:51:25.694Z,91.90
2019-04-28T04:53:56.532Z,91.90
2019-04-28T04:56:27.145Z,91.90
2019-04-28T04:59:00.297Z,91.90
2019-04-28T05:01:55.046Z,91.90
2019-04-28T05:04:45.448Z,91.90
2019-04-28T05:07:16.178Z,91.90
2019-04-28T05:09:46.691Z,92.00
2019-04-28T05:12:17.442Z,92.00
2019-04-28T05:14:49.412Z,92.10
2019-04-28T05:17:20.381Z,92.00
2019-04-28T05:19:51.033Z,92.10
2019-04-28T05:22:23.143Z,92.10
2019-04-28T05:25:00.103Z,91.90
2019-04-28T05:27:32.548Z,91.90
2019-04-28T05:30:05.196Z,91.90
2019-04-28T05:32:44.598Z,91.90
2019-04-28T05:35:09.849Z,91.90
2019-04-28T05:37:40.532Z,91.90
2019-04-28T05:40:11.307Z,91.80
2019-04-28T05:43:00.718Z,91.80
2019-04-28T05:45:32.308Z,91.80
2019-04-28T05:48:03.070Z,91.90
2019-04-28T05:50:42.227Z,91.80
2019-04-28T05:53:31.701Z,91.80
2019-04-28T05:56:15.939Z,91.70
2019-04-28T05:59:05.389Z,91.70
2019-04-28T06:01:53.532Z,91.50
2019-04-28T06:04:26.854Z,91.80
2019-04-28T06:07:03.402Z,91.80
2019-04-28T06:09:44.491Z,91.80
2019-04-28T06:12:16.882Z,91.90
2019-04-28T06:14:47.399Z,91.90
2019-04-28T06:17:17.885Z,92.00
2019-04-28T06:19:50.254Z,92.10
2019-04-28T06:22:20.513Z,91.90
2019-04-28T06:24:51.004Z,92.10
2019-04-28T06:27:21.583Z,92.30
2019-04-28T06:29:52.093Z,92.30
2019-04-28T06:32:22.732Z,92.10
2019-04-28T06:34:53.304Z,92.00
2019-04-28T06:37:23.982Z,92.30
2019-04-28T06:39:54.780Z,92.60
2019-04-28T06:42:25.699Z,92.70
2019-04-28T06:44:56.451Z,92.60
2019-04-28T06:47:27.153Z,92.50
2019-04-28T06:49:57.893Z,92.50
2019-04-28T06:52:30.298Z,92.50
2019-04-28T06:55:00.851Z,92.90
2019-04-28T06:57:31.462Z,92.50
2019-04-28T07:00:02.517Z,92.30
2019-04-28T07:02:34.479Z,92.50
2019-04-28T07:05:05.815Z,92.70
2019-04-28T07:07:36.474Z,92.70
2019-04-28T07:10:07.892Z,92.30
2019-04-28T07:12:38.907Z,92.10
2019-04-28T07:15:10.035Z,92.30
2019-04-28T07:17:41.176Z,91.90
2019-04-28T07:20:43.098Z,91.70
2019-04-28T07:23:14.660Z,91.30
2019-04-28T07:25:45.903Z,91.10
2019-04-28T07:28:16.761Z,91.30
2019-04-28T07:30:48.035Z,91.10
2019-04-28T07:33:19.665Z,91.00
2019-04-28T07:35:51.001Z,91.10
2019-04-28T07:38:22.444Z,90.90
2019-04-28T07:40:53.607Z,90.70
2019-04-28T07:43:24.117Z,90.10
2019-04-28T07:45:54.669Z,90.30
2019-04-28T07:48:26.209Z,89.90
2019-04-28T07:50:56.734Z,89.70
2019-04-28T07:53:33.510Z,89.20
2019-04-28T07:56:04.126Z,89.50
2019-04-28T07:58:34.761Z,89.30
2019-04-28T08:01:07.048Z,90.00
2019-04-28T08:03:48.765Z,89.50
2019-04-28T08:06:09.722Z,89.70
2019-04-28T08:08:40.291Z,90.00
2019-04-28T08:11:10.852Z,90.20
2019-04-28T08:13:41.445Z,89.80
2019-04-28T08:16:12.343Z,89.50
2019-04-28T08:18:42.799Z,89.10
2019-04-28T08:21:13.336Z,89.20
2019-04-28T08:23:47.355Z,89.20
2019-04-28T08:26:16.023Z,89.10
2019-04-28T08:28:46.480Z,89.20
2019-04-28T08:31:18.584Z,88.20
2019-04-28T08:34:02.290Z,87.70
2019-04-28T08:36:25.571Z,87.40
2019-04-28T08:38:56.260Z,89.30
2019-04-28T08:41:26.875Z,88.10
2019-04-28T08:43:57.382Z,88.30
2019-04-28T08:46:27.847Z,88.80
2019-04-28T08:48:58.523Z,89.30
2019-04-28T08:51:29.041Z,87.70
2019-04-28T08:53:59.682Z,88.20
2019-04-28T08:56:30.229Z,86.80
2019-04-28T08:59:00.736Z,87.10
2019-04-28T09:01:31.233Z,86.30
2019-04-28T09:04:14.445Z,86.30
2019-04-28T09:06:33.934Z,85.20
2019-04-28T09:09:07.936Z,85.90
2019-04-28T09:11:39.111Z,85.40
2019-04-28T09:14:09.644Z,85.40
2019-04-28T09:16:40.374Z,83.60
2019-04-28T09:19:10.870Z,83.00
2019-04-28T09:21:41.486Z,84.50
2019-04-28T09:24:12.045Z,82.20
2019-04-28T09:26:42.606Z,82.20
2019-04-28T09:29:13.074Z,79.50
2019-04-28T09:31:43.542Z,79.00
2019-04-28T09:34:14.002Z,79.20
2019-04-28T09:36:44.567Z,80.90
2019-04-28T09:39:16.841Z,82.40
2019-04-28T09:42:06.312Z,81.90
2019-04-28T09:44:36.865Z,83.60
2019-04-28T09:47:07.482Z,83.60
2019-04-28T09:49:38.318Z,83.60
2019-04-28T09:52:09.042Z,83.50
2019-04-28T09:54:39.530Z,82.90
2019-04-28T09:57:10.018Z,81.70
2019-04-28T09:59:40.586Z,81.40
2019-04-28T10:02:11.229Z,80.40
2019-04-28T10:04:42.310Z,81.30
2019-04-28T10:07:13.992Z,81.20
2019-04-28T10:09:45.958Z,79.50
2019-04-28T10:12:26.571Z,79.80
2019-04-28T10:14:49.767Z,77.40
2019-04-28T10:17:20.233Z,78.90
2019-04-28T10:19:50.788Z,76.60
2019-04-28T10:22:21.710Z,75.30
2019-04-28T10:24:52.291Z,76.60
2019-04-28T10:27:22.857Z,78.40
2019-04-28T10:29:53.379Z,78.60
2019-04-28T10:32:23.898Z,79.60
2019-04-28T10:34:55.378Z,79.80
2019-04-28T10:37:25.860Z,79.70
2019-04-28T10:40:11.056Z,79.30
2019-04-28T10:42:41.702Z,78.90
2019-04-28T10:45:15.226Z,79.60
2019-04-28T10:47:45.956Z,81.30
2019-04-28T10:50:16.842Z,84.40
2019-04-28T10:52:47.476Z,82.20
2019-04-28T10:55:18.038Z,81.30
2019-04-28T10:57:48.590Z,81.50
2019-04-28T11:00:20.735Z,83.20
2019-04-28T11:02:51.288Z,82.20
2019-04-28T11:05:28.613Z,82.00
2019-04-28T11:07:59.478Z,82.00
2019-04-28T11:10:29.989Z,82.30
2019-04-28T11:13:01.164Z,82.70
2019-04-28T11:15:36.220Z,84.00
2019-04-28T11:18:09.442Z,84.50
2019-04-28T11:20:40.436Z,85.70
2019-04-28T11:23:12.105Z,86.90
2019-04-28T11:25:42.622Z,86.50
2019-04-28T11:28:13.168Z,87.10
2019-04-28T11:30:43.771Z,87.60
2019-04-28T11:33:38.647Z,86.90
2019-04-28T11:36:19.926Z,86.80
2019-04-28T11:38:50.457Z,86.70
2019-04-28T11:41:21.091Z,84.20
2019-04-28T11:43:51.647Z,85.30
2019-04-28T11:46:22.858Z,84.90
2019-04-28T11:48:53.413Z,86.00
2019-04-28T11:51:23.940Z,84.60
2019-04-28T11:53:54.661Z,83.70
2019-04-28T11:56:25.310Z,81.80
2019-04-28T11:58:55.895Z,83.20
2019-04-28T12:01:26.719Z,84.50
2019-04-28T12:03:59.971Z,85.70
2019-04-28T12:06:30.480Z,87.00
2019-04-28T12:09:16.820Z,86.90
2019-04-28T12:11:50.335Z,87.70
2019-04-28T12:14:35.995Z,86.30
2019-04-28T12:17:37.372Z,86.30
2019-04-28T12:20:14.984Z,85.70
2019-04-28T12:22:45.481Z,87.60
2019-04-28T12:25:15.970Z,88.80
2019-04-28T12:27:46.475Z,86.70
2019-04-28T12:30:17.981Z,87.40
2019-04-28T12:32:48.475Z,86.30
2019-04-28T12:35:19.052Z,86.30
2019-04-28T12:37:49.607Z,85.30
2019-04-28T12:40:22.480Z,87.20
2019-04-28T12:42:52.279Z,88.90
2019-04-28T12:45:34.557Z,90.00
2019-04-28T12:47:55.193Z,90.10
2019-04-28T12:50:33.486Z,89.80
2019-04-28T12:53:03.982Z,89.90
2019-04-28T12:55:34.655Z,89.20
2019-04-28T12:58:05.554Z,87.90
2019-04-28T13:00:58.155Z,90.20
2019-04-28T13:03:48.353Z,90.50
2019-04-28T13:06:19.294Z,91.00
2019-04-28T13:08:49.857Z,91.50
2019-04-28T13:11:20.425Z,91.70
2019-04-28T13:13:50.932Z,91.70
2019-04-28T13:16:21.526Z,92.40
2019-04-28T13:18:52.125Z,92.40
2019-04-28T13:21:22.685Z,92.00
2019-04-28T13:23:53.207Z,92.00
2019-04-28T13:26:23.714Z,92.60
2019-04-28T13:28:54.285Z,93.10
2019-04-28T13:31:24.717Z,91.80
2019-04-28T13:33:56.807Z,91.40
2019-04-28T13:36:27.699Z,91.40
2019-04-28T13:38:59.798Z,91.70
2019-04-28T13:41:30.535Z,91.50
2019-04-28T13:44:03.042Z,92.10
2019-04-28T13:46:34.627Z,92.60
2019-04-28T13:49:07.214Z,92.70
2019-04-28T13:51:38.841Z,92.50
2019-04-28T13:54:11.085Z,92.20
2019-04-28T13:56:41.602Z,91.80
2019-04-28T13:59:16.642Z,92.40
2019-04-28T14:02:11.018Z,92.10
2019-04-28T14:04:50.732Z,92.60
2019-04-28T14:07:21.330Z,92.70
2019-04-28T14:09:51.825Z,92.40
2019-04-28T14:12:22.420Z,92.50
2019-04-28T14:14:53.120Z,93.10
2019-04-28T14:17:23.738Z,93.00
2019-04-28T14:19:54.370Z,92.60
2019-04-28T14:22:24.966Z,92.30
2019-04-28T14:24:55.541Z,91.60
2019-04-28T14:27:26.049Z,92.30
2019-04-28T14:29:56.663Z,91.90
2019-04-28T14:32:27.223Z,91.70
2019-04-28T14:34:57.853Z,92.20
2019-04-28T14:37:28.406Z,92.00
2019-04-28T14:39:59.125Z,92.30
2019-04-28T14:42:29.674Z,91.80
2019-04-28T14:45:00.222Z,91.80
2019-04-28T14:47:30.770Z,92.30
2019-04-28T14:50:02.970Z,92.00
2019-04-28T14:52:34.614Z,91.80
2019-04-28T14:55:05.608Z,91.70
2019-04-28T14:57:36.212Z,92.20
2019-04-28T15:00:07.072Z,92.40
2019-04-28T15:02:46.992Z,92.20
2019-04-28T15:05:28.858Z,92.50
2019-04-28T15:08:30.454Z,92.30
2019-04-28T15:11:08.749Z,92.40
2019-04-28T15:13:39.285Z,92.70
2019-04-28T15:16:09.930Z,92.40
2019-04-28T15:18:40.581Z,91.80
2019-04-28T15:21:13.189Z,91.80
2019-04-28T15:23:43.810Z,91.60
2019-04-28T15:26:14.398Z,91.50
2019-04-28T15:28:44.922Z,91.70
2019-04-28T15:31:15.445Z,91.70
2019-04-28T15:33:45.947Z,92.10
2019-04-28T15:36:16.420Z,92.40
2019-04-28T15:38:47.368Z,92.40
2019-04-28T15:41:21.876Z,92.20
2019-04-28T15:43:50.199Z,92.50
2019-04-28T15:46:20.761Z,92.20
2019-04-28T15:48:51.538Z,92.40
2019-04-28T15:51:23.055Z,92.80
2019-04-28T15:53:53.624Z,92.40
2019-04-28T15:56:47.363Z,92.30
2019-04-28T15:59:18.495Z,92.20
2019-04-28T16:01:49.014Z,92.20
2019-04-28T16:04:19.671Z,92.40
2019-04-28T16:06:50.411Z,92.50
2019-04-28T16:09:21.042Z,92.40
2019-04-28T16:11:51.561Z,92.30
2019-04-28T16:14:22.109Z,92.30
2019-04-28T16:16:52.806Z,92.30
2019-04-28T16:19:23.429Z,92.40
2019-04-28T16:21:53.990Z,92.80
2019-04-28T16:24:24.653Z,92.60
2019-04-28T16:26:55.195Z,92.50
2019-04-28T16:29:25.714Z,92.80
2019-04-28T16:31:56.225Z,92.80
2019-04-28T16:34:27.018Z,92.90
2019-04-28T16:36:57.529Z,92.70
2019-04-28T16:39:28.010Z,92.40
2019-04-28T16:41:58.593Z,92.50
2019-04-28T16:44:29.934Z,92.30
2019-04-28T16:47:00.570Z,91.90
2019-04-28T16:49:31.139Z,91.90
2019-04-28T16:52:01.652Z,91.80
2019-04-28T16:54:32.250Z,91.80
2019-04-28T16:57:11.935Z,91.90
2019-04-28T16:59:47.795Z,91.90
2019-04-28T17:02:29.813Z,92.10
2019-04-28T17:05:00.369Z,92.00
2019-04-28T17:07:30.907Z,91.80
2019-04-28T17:10:01.474Z,92.20
2019-04-28T17:12:34.086Z,92.10
2019-04-28T17:15:05.550Z,92.10
2019-04-28T17:17:36.455Z,92.30
2019-04-28T17:20:07.317Z,92.20
2019-04-28T17:22:38.410Z,92.30
2019-04-28T17:25:09.051Z,92.20
2019-04-28T17:27:39.567Z,92.20
2019-04-28T17:30:10.723Z,92.20
2019-04-28T17:32:41.295Z,92.20
2019-04-28T17:35:12.017Z,92.30
2019-04-28T17:37:42.570Z,92.50
2019-04-28T17:40:13.469Z,92.40
2019-04-28T17:42:44.208Z,92.30
2019-04-28T17:45:15.026Z,92.20
2019-04-28T17:47:45.982Z,92.10
2019-04-28T17:50:18.185Z,92.60
2019-04-28T17:52:48.705Z,93.00
2019-04-28T17:55:19.245Z,93.30
2019-04-28T17:57:49.758Z,93.40
2019-04-28T18:00:39.172Z,93.70
2019-04-28T18:03:20.150Z,93.80
2019-04-28T18:05:56.434Z,93.90
2019-04-28T18:08:26.932Z,94.30
2019-04-28T18:10:57.449Z,94.60
2019-04-28T18:13:27.927Z,94.80
2019-04-28T18:16:17.537Z,94.80
2019-04-28T18:18:52.000Z,94.90
2019-04-28T18:21:22.531Z,94.90
2019-04-28T18:23:53.295Z,95.10
2019-04-28T18:26:24.874Z,95.30
2019-04-28T18:28:55.475Z,95.40
2019-04-28T18:31:36.983Z,95.50
2019-04-28T18:34:44.631Z,95.90
2019-04-28T18:37:35.185Z,95.80
2019-04-28T18:40:23.511Z,96.00
2019-04-28T18:42:59.986Z,96.00
2019-04-28T18:45:30.503Z,96.00
2019-04-28T18:48:01.055Z,96.10
2019-04-28T18:50:31.653Z,96.30
2019-04-28T18:53:02.273Z,96.40
2019-04-28T18:55:32.949Z,96.50
2019-04-28T18:58:03.512Z,96.50
2019-04-28T19:00:36.361Z,96.70
2019-04-28T19:03:07.923Z,96.90
2019-04-28T19:05:40.353Z,96.80
2019-04-28T19:08:48.545Z,96.60
2019-04-28T19:11:28.090Z,96.30
2019-04-28T19:14:04.449Z,96.40
2019-04-28T19:16:53.843Z,96.20
2019-04-28T19:19:25.050Z,96.30
2019-04-28T19:21:56.465Z,96.00
2019-04-28T19:24:27.258Z,96.00
2019-04-28T19:26:57.874Z,96.10
2019-04-28T19:29:28.501Z,96.00
2019-04-28T19:32:00.127Z,96.10
2019-04-28T19:34:30.702Z,96.20
2019-04-28T19:37:01.367Z,96.30
2019-04-28T19:39:32.017Z,96.10
2019-04-28T19:42:02.618Z,96.30
2019-04-28T19:44:33.306Z,96.30
2019-04-28T19:47:04.797Z,96.60
2019-04-28T19:49:35.389Z,96.70
2019-04-28T19:52:06.044Z,96.60
2019-04-28T19:54:39.017Z,96.60
2019-04-28T19:57:23.788Z,96.60
2019-04-28T20:00:12.067Z,96.60
2019-04-28T20:02:44.151Z,96.60
2019-04-28T20:05:14.649Z,96.60
2019-04-28T20:07:45.222Z,96.60
2019-04-28T20:10:15.712Z,96.70
2019-04-28T20:12:46.260Z,96.60
2019-04-28T20:15:16.945Z,96.50
2019-04-28T20:17:47.666Z,96.40
2019-04-28T20:20:18.255Z,96.80
2019-04-28T20:22:48.950Z,96.50
2019-04-28T20:25:19.518Z,96.50
2019-04-28T20:27:50.094Z,96.70
2019-04-28T20:30:20.721Z,97.00
2019-04-28T20:32:51.296Z,97.00
2019-04-28T20:35:25.970Z,97.00
2019-04-28T20:38:01.641Z,97.00
2019-04-28T20:40:41.390Z,97.00
2019-04-28T20:43:17.238Z,96.90
2019-04-28T20:45:47.816Z,96.90
2019-04-28T20:48:18.386Z,96.90
2019-04-28T20:50:49.005Z,97.00
2019-04-28T20:53:19.575Z,97.30
2019-04-28T20:55:50.146Z,97.60
2019-04-28T20:58:20.705Z,97.60
2019-04-28T21:00:51.281Z,97.70
2019-04-28T21:03:21.870Z,97.80
2019-04-28T21:05:52.425Z,97.80
2019-04-28T21:08:23.016Z,97.90
2019-04-28T21:10:53.604Z,97.90
2019-04-28T21:13:24.316Z,97.90
2019-04-28T21:15:54.814Z,97.80
2019-04-28T21:18:25.510Z,97.90
2019-04-28T21:20:55.999Z,98.00
2019-04-28T21:23:26.581Z,98.00
2019-04-28T21:25:57.156Z,98.10
2019-04-28T21:28:27.774Z,98.20
2019-04-28T21:30:58.262Z,98.30
2019-04-28T21:33:28.803Z,98.40
2019-04-28T21:36:00.433Z,98.50
2019-04-28T21:38:30.987Z,98.50
2019-04-28T21:41:01.577Z,98.50
2019-04-28T21:43:47.498Z,98.80
2019-04-28T21:46:39.701Z,98.90
2019-04-28T21:49:42.684Z,99.00
2019-04-28T21:52:13.221Z,99.00
2019-04-28T21:54:43.718Z,98.90
2019-04-28T21:57:14.300Z,98.80
2019-04-28T21:59:44.816Z,98.90
2019-04-28T22:02:16.400Z,98.90
2019-04-28T22:04:47.276Z,98.90
2019-04-28T22:07:18.079Z,99.00
2019-04-28T22:09:48.778Z,99.00
2019-04-28T22:12:19.295Z,99.10
2019-04-28T22:14:49.901Z,99.00
2019-04-28T22:17:20.488Z,99.10
2019-04-28T22:19:51.152Z,99.20
2019-04-28T22:22:21.869Z,99.20
2019-04-28T22:25:00.975Z,99.40
2019-04-28T22:27:35.008Z,99.40
2019-04-28T22:30:07.199Z,99.40
2019-04-28T22:32:37.765Z,99.50
2019-04-28T22:35:08.833Z,99.60
2019-04-28T22:37:39.412Z,99.70
2019-04-28T22:40:10.116Z,99.60
2019-04-28T22:42:41.140Z,99.60
2019-04-28T22:45:12.958Z,99.60
2019-04-28T22:47:43.599Z,99.70
2019-04-28T22:50:37.945Z,99.80
2019-04-28T22:53:08.553Z,99.90
2019-04-28T22:55:57.099Z,99.90
2019-04-28T23:01:30.878Z,99.90
2019-04-28T23:04:07.354Z,99.90
2019-04-28T23:06:38.028Z,99.90
2019-04-28T23:09:10.870Z,99.90
2019-04-28T23:11:42.757Z,99.90
2019-04-28T23:14:13.352Z,99.90
2019-04-28T23:16:44.011Z,99.90
2019-04-28T23:19:16.299Z,99.90
2019-04-28T23:21:52.862Z,99.90
2019-04-28T23:24:23.461Z,99.90
2019-04-28T23:26:54.071Z,99.90
2019-04-28T23:29:24.609Z,99.90
2019-04-28T23:31:55.278Z,99.90
2019-04-28T23:34:25.874Z,99.90
2019-04-28T23:36:56.763Z,99.90
2019-04-28T23:39:27.293Z,99.90
2019-04-28T23:42:19.745Z,99.90
2019-04-28T23:44:51.455Z,99.90
2019-04-28T23:47:21.987Z,99.90
2019-04-28T23:49:52.525Z,99.90
2019-04-28T23:52:40.847Z,99.90
2019-04-28T23:55:11.519Z,99.90
2019-04-28T23:57:42.160Z,99.90
